createdAt,value
2019-04-22T00:00:16.706Z,14.10
2019-04-22T00:02:20.702Z,14.10
2019-04-22T00:04:41.780Z,14.00
2019-04-22T00:07:01.367Z,14.00
2019-04-22T00:09:05.517Z,14.00
2019-04-22T00:11:16.190Z,13.80
2019-04-22T00:13:23.751Z,13.70
2019-04-22T00:15:15.736Z,13.70
2019-04-22T00:17:35.352Z,13.70
2019-04-22T00:19:38.884Z,13.60
2019-04-22T00:21:43.213Z,13.70
2019-04-22T00:23:39.377Z,13.70
2019-04-22T00:25:53.901Z,13.60
2019-04-22T00:27:56.736Z,13.70
2019-04-22T00:32:19.822Z,13.50
2019-04-22T00:34:27.125Z,13.30
2019-04-22T00:36:36.608Z,13.10
2019-04-22T00:38:44.176Z,13.20
2019-04-22T00:40:44.583Z,13.20
2019-04-22T00:42:56.560Z,13.20
2019-04-22T00:45:03.321Z,13.10
2019-04-22T00:47:12.212Z,13.20
2019-04-22T00:49:53.013Z,13.30
2019-04-22T00:51:22.665Z,13.20
2019-04-22T00:53:23.840Z,13.30
2019-04-22T00:55:24.810Z,13.10
2019-04-22T00:59:42.128Z,13.10
2019-04-22T01:01:36.997Z,13.00
2019-04-22T01:05:56.845Z,13.00
2019-04-22T01:07:57.035Z,13.10
2019-04-22T01:10:06.952Z,13.00
2019-04-22T01:12:16.622Z,13.00
2019-04-22T01:14:14.515Z,13.20
2019-04-22T01:18:23.920Z,13.10
2019-04-22T01:22:34.200Z,13.20
2019-04-22T01:24:41.775Z,12.90
2019-04-22T01:26:43.600Z,12.80
2019-04-22T01:28:48.968Z,12.70
2019-04-22T01:30:49.197Z,12.70
2019-04-22T01:32:50.312Z,12.70
2019-04-22T01:35:05.853Z,12.70
2019-04-22T01:37:14.159Z,12.80
2019-04-22T01:39:21.872Z,12.60
2019-04-22T01:41:42.299Z,12.60
2019-04-22T01:43:40.917Z,12.70
2019-04-22T01:45:49.710Z,13.00
2019-04-22T01:47:53.285Z,13.00
2019-04-22T01:49:55.997Z,13.10
2019-04-22T01:52:07.183Z,13.10
2019-04-22T01:54:12.888Z,13.00
2019-04-22T01:56:14.047Z,12.80
2019-04-22T01:58:10.982Z,12.90
2019-04-22T02:00:14.018Z,12.70
2019-04-22T02:02:31.719Z,12.50
2019-04-22T02:04:36.788Z,12.60
2019-04-22T02:06:45.672Z,12.60
2019-04-22T02:08:52.657Z,12.70
2019-04-22T02:12:54.020Z,12.70
2019-04-22T02:15:00.777Z,12.60
2019-04-22T02:17:14.527Z,12.60
2019-04-22T02:19:19.174Z,12.50
2019-04-22T02:21:13.875Z,12.50
2019-04-22T02:23:45.898Z,12.50
2019-04-22T02:25:34.533Z,12.40
2019-04-22T02:27:43.410Z,12.40
2019-04-22T02:31:59.387Z,12.50
2019-04-22T02:36:20.162Z,12.40
2019-04-22T02:38:30.729Z,12.30
2019-04-22T02:40:17.189Z,12.30
2019-04-22T02:44:31.360Z,12.10
2019-04-22T02:46:47.295Z,11.90
2019-04-22T02:48:53.858Z,11.90
2019-04-22T02:50:46.152Z,11.90
2019-04-22T02:52:50.641Z,12.10
2019-04-22T02:57:07.979Z,12.20
2019-04-22T03:01:24.828Z,12.20
2019-04-22T03:05:27.818Z,12.20
2019-04-22T03:07:27.022Z,12.10
2019-04-22T03:09:29.933Z,11.90
2019-04-22T03:11:52.899Z,11.80
2019-04-22T03:13:55.931Z,11.80
2019-04-22T03:16:01.210Z,11.60
2019-04-22T03:18:00.884Z,11.80
2019-04-22T03:20:06.284Z,11.80
2019-04-22T03:22:08.200Z,11.90
2019-04-22T03:24:23.940Z,12.10
2019-04-22T03:28:33.103Z,11.90
2019-04-22T03:37:17.663Z,11.90
2019-04-22T03:39:15.426Z,11.90
2019-04-22T03:43:08.040Z,11.90
2019-04-22T03:45:20.254Z,11.80
2019-04-22T03:51:43.419Z,11.80
2019-04-22T03:53:59.203Z,12.00
2019-04-22T03:55:38.467Z,12.10
2019-04-22T04:02:15.732Z,11.80
2019-04-22T04:04:09.128Z,11.60
2019-04-22T04:06:00.456Z,11.70
2019-04-22T04:08:15.832Z,11.80
2019-04-22T04:16:41.300Z,11.80
2019-04-22T04:18:46.666Z,11.80
2019-04-22T04:20:54.489Z,11.90
2019-04-22T04:25:08.189Z,11.70
2019-04-22T04:27:20.470Z,11.70
2019-04-22T04:29:26.299Z,11.80
2019-04-22T04:31:24.564Z,11.70
2019-04-22T04:37:42.626Z,11.90
2019-04-22T04:39:34.874Z,11.70
2019-04-22T04:41:42.086Z,11.70
2019-04-22T04:46:02.332Z,11.50
2019-04-22T04:47:54.846Z,11.60
2019-04-22T04:50:12.035Z,11.50
2019-04-22T04:52:14.485Z,11.40
2019-04-22T04:54:24.289Z,11.40
2019-04-22T04:56:23.250Z,11.60
2019-04-22T05:04:59.996Z,11.80
2019-04-22T05:06:53.688Z,11.90
2019-04-22T05:10:56.219Z,11.90
2019-04-22T05:15:11.255Z,12.10
2019-04-22T05:17:12.843Z,12.20
2019-04-22T05:19:15.811Z,12.20
2019-04-22T05:21:16.415Z,12.20
2019-04-22T05:27:39.497Z,12.20
2019-04-22T05:29:46.498Z,12.30
2019-04-22T05:31:47.900Z,12.10
2019-04-22T05:33:51.809Z,12.30
2019-04-22T05:35:56.461Z,12.20
2019-04-22T05:38:04.504Z,12.20
2019-04-22T05:40:09.022Z,12.40
2019-04-22T05:44:14.662Z,12.60
2019-04-22T05:46:26.588Z,12.70
2019-04-22T05:48:24.310Z,12.70
2019-04-22T05:50:26.931Z,12.80
2019-04-22T05:52:40.401Z,13.00
2019-04-22T05:54:50.876Z,12.90
2019-04-22T05:56:42.933Z,13.10
2019-04-22T05:58:59.919Z,13.30
2019-04-22T06:03:11.660Z,13.60
2019-04-22T06:05:17.304Z,13.80
2019-04-22T06:07:22.825Z,14.00
2019-04-22T06:09:28.818Z,14.20
2019-04-22T06:11:46.482Z,14.40
2019-04-22T06:13:41.843Z,14.60
2019-04-22T06:15:48.851Z,14.70
2019-04-22T06:18:06.535Z,14.90
2019-04-22T06:20:07.571Z,15.00
2019-04-22T06:22:15.436Z,15.10
2019-04-22T06:24:18.535Z,15.30
2019-04-22T06:30:36.002Z,15.80
2019-04-22T06:32:55.483Z,15.90
2019-04-22T06:34:43.148Z,15.90
2019-04-22T06:36:53.927Z,16.00
2019-04-22T06:38:55.943Z,16.10
2019-04-22T06:41:07.217Z,16.20
2019-04-22T06:45:15.169Z,16.40
2019-04-22T06:47:37.937Z,16.50
2019-04-22T06:49:26.836Z,16.60
2019-04-22T06:51:33.008Z,16.60
2019-04-22T06:53:37.440Z,16.70
2019-04-22T06:55:56.336Z,16.70
2019-04-22T06:57:43.670Z,16.80
2019-04-22T06:59:51.564Z,16.70
2019-04-22T07:02:00.841Z,16.80
2019-04-22T07:04:01.506Z,16.90
2019-04-22T07:06:09.517Z,17.00
2019-04-22T07:08:30.474Z,16.90
2019-04-22T07:12:24.311Z,16.90
2019-04-22T07:14:23.865Z,16.70
2019-04-22T07:18:38.635Z,16.60
2019-04-22T07:20:44.305Z,16.50
2019-04-22T07:27:08.615Z,16.50
2019-04-22T07:29:23.632Z,16.90
2019-04-22T07:31:11.630Z,16.90
2019-04-22T07:33:27.884Z,17.40
2019-04-22T07:35:28.918Z,17.50
2019-04-22T07:37:38.824Z,17.50
2019-04-22T07:39:35.437Z,17.20
2019-04-22T07:41:41.042Z,17.30
2019-04-22T07:44:02.961Z,17.40
2019-04-22T07:45:51.873Z,17.30
2019-04-22T07:48:02.730Z,17.60
2019-04-22T07:52:05.041Z,17.80
2019-04-22T07:54:15.736Z,17.50
2019-04-22T07:56:23.511Z,17.70
2019-04-22T07:58:25.819Z,18.00
2019-04-22T08:00:34.127Z,18.10
2019-04-22T08:02:44.221Z,18.40
2019-04-22T08:04:55.780Z,18.40
2019-04-22T08:06:52.277Z,18.20
2019-04-22T08:08:55.606Z,18.50
2019-04-22T08:11:30.931Z,18.50
2019-04-22T08:13:03.870Z,18.40
2019-04-22T08:15:12.984Z,18.50
2019-04-22T08:17:43.469Z,18.50
2019-04-22T08:19:23.126Z,18.50
2019-04-22T08:21:23.696Z,18.60
2019-04-22T08:23:36.813Z,18.50
2019-04-22T08:25:38.847Z,18.60
2019-04-22T08:27:42.823Z,18.70
2019-04-22T08:30:00.118Z,18.60
2019-04-22T08:31:56.540Z,18.50
2019-04-22T08:34:02.087Z,18.50
2019-04-22T08:36:15.130Z,18.80
2019-04-22T08:38:11.631Z,18.70
2019-04-22T08:40:21.486Z,18.90
2019-04-22T08:42:27.464Z,18.70
2019-04-22T08:44:40.192Z,18.90
2019-04-22T08:48:37.106Z,18.90
2019-04-22T08:50:44.196Z,18.70
2019-04-22T08:52:58.739Z,18.50
2019-04-22T08:54:57.430Z,18.90
2019-04-22T08:57:07.343Z,19.10
2019-04-22T08:59:14.909Z,19.20
2019-04-22T09:01:17.693Z,19.20
2019-04-22T09:03:15.943Z,19.60
2019-04-22T09:05:37.401Z,19.40
2019-04-22T09:09:39.142Z,18.90
2019-04-22T09:11:46.977Z,19.30
2019-04-22T09:13:50.671Z,19.40
2019-04-22T09:15:49.637Z,19.30
2019-04-22T09:18:02.277Z,19.20
2019-04-22T09:20:04.648Z,19.50
2019-04-22T09:22:13.707Z,19.60
2019-04-22T09:26:23.970Z,19.30
2019-04-22T09:28:23.274Z,19.60
2019-04-22T09:30:42.918Z,19.70
2019-04-22T09:32:38.600Z,19.80
2019-04-22T09:36:56.167Z,20.10
2019-04-22T09:38:52.690Z,20.40
2019-04-22T09:41:00.919Z,20.30
2019-04-22T09:43:05.034Z,20.30
2019-04-22T09:45:13.794Z,20.30
2019-04-22T09:47:19.081Z,20.10
2019-04-22T09:49:29.190Z,20.30
2019-04-22T09:51:25.363Z,20.40
2019-04-22T09:53:38.688Z,20.70
2019-04-22T09:55:37.478Z,20.60
2019-04-22T09:57:48.252Z,20.50
2019-04-22T09:59:57.497Z,20.60
2019-04-22T10:02:13.327Z,20.60
2019-04-22T10:06:17.327Z,20.90
2019-04-22T10:08:18.655Z,21.10
2019-04-22T10:12:30.476Z,21.00
2019-04-22T10:16:39.324Z,20.80
2019-04-22T10:18:41.287Z,20.70
2019-04-22T10:20:45.916Z,20.60
2019-04-22T10:23:06.216Z,20.80
2019-04-22T10:24:58.247Z,21.00
2019-04-22T10:26:57.097Z,21.10
2019-04-22T10:31:20.686Z,21.40
2019-04-22T10:33:11.676Z,21.10
2019-04-22T10:35:09.225Z,20.60
2019-04-22T10:37:14.211Z,21.10
2019-04-22T10:39:16.217Z,20.90
2019-04-22T10:41:20.718Z,21.00
2019-04-22T10:43:25.318Z,21.10
2019-04-22T10:45:30.367Z,21.50
2019-04-22T10:47:34.212Z,21.90
2019-04-22T10:49:38.303Z,22.00
2019-04-22T10:51:42.387Z,21.70
2019-04-22T10:53:47.156Z,22.00
2019-04-22T10:55:51.648Z,22.00
2019-04-22T10:57:56.812Z,22.00
2019-04-22T11:00:00.986Z,22.00
2019-04-22T11:02:05.540Z,22.00
2019-04-22T11:04:11.183Z,22.40
2019-04-22T11:06:15.134Z,22.20
2019-04-22T11:08:25.033Z,22.20
2019-04-22T11:10:41.294Z,22.20
2019-04-22T11:12:32.287Z,22.40
2019-04-22T11:14:35.185Z,22.20
2019-04-22T11:16:39.479Z,22.10
2019-04-22T11:18:43.459Z,22.00
2019-04-22T11:20:47.467Z,22.10
2019-04-22T11:22:52.954Z,22.30
2019-04-22T11:24:59.822Z,22.20
2019-04-22T11:27:03.216Z,22.40
2019-04-22T11:29:07.696Z,22.50
2019-04-22T11:31:12.482Z,22.50
2019-04-22T11:33:16.369Z,22.60
2019-04-22T11:35:21.529Z,22.10
2019-04-22T11:37:25.554Z,22.00
2019-04-22T11:39:31.135Z,22.10
2019-04-22T11:41:36.162Z,22.40
2019-04-22T11:43:41.197Z,22.60
2019-04-22T11:45:45.170Z,22.50
2019-04-22T11:47:48.999Z,22.80
2019-04-22T11:49:54.348Z,23.10
2019-04-22T11:51:58.958Z,23.00
2019-04-22T11:54:03.293Z,22.00
2019-04-22T11:56:07.019Z,21.80
2019-04-22T11:58:10.726Z,22.70
2019-04-22T12:00:16.901Z,22.50
2019-04-22T12:02:23.456Z,22.60
2019-04-22T12:04:27.698Z,23.00
2019-04-22T12:06:31.786Z,23.40
2019-04-22T12:08:35.753Z,23.20
2019-04-22T12:10:49.447Z,23.30
2019-04-22T12:12:48.257Z,23.60
2019-04-22T12:14:52.328Z,23.30
2019-04-22T12:16:57.306Z,23.20
2019-04-22T12:19:01.113Z,23.30
2019-04-22T12:21:05.430Z,22.90
2019-04-22T12:23:09.490Z,23.10
2019-04-22T12:25:28.051Z,23.40
2019-04-22T12:27:24.016Z,23.50
2019-04-22T12:29:26.918Z,23.60
2019-04-22T12:31:31.580Z,23.40
2019-04-22T12:33:37.050Z,23.70
2019-04-22T12:35:42.120Z,23.40
2019-04-22T12:37:52.929Z,23.60
2019-04-22T12:39:53.087Z,23.60
2019-04-22T12:41:58.279Z,23.80
2019-04-22T12:44:03.313Z,23.40
2019-04-22T12:46:07.985Z,23.60
2019-04-22T12:48:12.898Z,23.70
2019-04-22T12:50:24.075Z,23.00
2019-04-22T12:52:32.342Z,23.10
2019-04-22T12:54:29.104Z,22.70
2019-04-22T12:56:33.437Z,23.10
2019-04-22T12:58:38.004Z,22.60
2019-04-22T13:00:42.808Z,23.20
2019-04-22T13:02:47.340Z,23.40
2019-04-22T13:04:52.315Z,23.30
2019-04-22T13:06:57.602Z,23.40
2019-04-22T13:09:02.197Z,23.50
2019-04-22T13:11:11.739Z,23.80
2019-04-22T13:13:11.516Z,22.80
2019-04-22T13:15:18.010Z,23.40
2019-04-22T13:17:23.160Z,23.50
2019-04-22T13:19:28.358Z,23.60
2019-04-22T13:21:33.058Z,24.20
2019-04-22T13:23:37.067Z,24.40
2019-04-22T13:25:40.953Z,24.80
2019-04-22T13:27:44.967Z,24.30
2019-04-22T13:29:48.771Z,24.40
2019-04-22T13:31:53.128Z,24.60
2019-04-22T13:33:59.718Z,24.70
2019-04-22T13:36:03.653Z,24.20
2019-04-22T13:38:08.945Z,24.00
2019-04-22T13:40:14.912Z,24.00
2019-04-22T13:42:21.716Z,24.00
2019-04-22T13:44:25.061Z,24.10
2019-04-22T13:46:31.703Z,23.70
2019-04-22T13:49:02.048Z,23.70
2019-04-22T13:53:30.369Z,24.50
2019-04-22T13:55:22.115Z,24.30
2019-04-22T13:57:18.706Z,24.20
2019-04-22T13:59:10.222Z,24.20
2019-04-22T14:01:12.857Z,23.60
2019-04-22T14:03:37.895Z,23.90
2019-04-22T14:07:32.801Z,23.50
2019-04-22T14:09:38.007Z,23.20
2019-04-22T14:11:49.393Z,23.50
2019-04-22T14:13:47.983Z,23.60
2019-04-22T14:15:52.972Z,23.30
2019-04-22T14:17:57.099Z,23.60
2019-04-22T14:20:00.807Z,23.90
2019-04-22T14:22:04.674Z,24.00
2019-04-22T14:24:10.665Z,24.10
2019-04-22T14:26:15.313Z,24.30
2019-04-22T14:28:21.474Z,24.30
2019-04-22T14:30:26.246Z,23.90
2019-04-22T14:32:31.871Z,23.70
2019-04-22T14:34:36.260Z,24.10
2019-04-22T14:36:41.303Z,24.40
2019-04-22T14:38:45.936Z,24.40
2019-04-22T14:40:49.996Z,24.10
2019-04-22T14:43:17.481Z,24.10
2019-04-22T14:45:30.403Z,24.40
2019-04-22T14:47:26.088Z,24.60
2019-04-22T14:49:37.088Z,24.20
2019-04-22T14:51:40.862Z,23.90
2019-04-22T14:53:41.625Z,24.20
2019-04-22T14:55:30.733Z,24.40
2019-04-22T14:57:34.297Z,24.10
2019-04-22T14:59:39.820Z,24.40
2019-04-22T15:01:43.658Z,24.20
2019-04-22T15:03:48.384Z,24.00
2019-04-22T15:05:52.397Z,24.00
2019-04-22T15:07:57.174Z,23.80
2019-04-22T15:10:01.929Z,24.10
2019-04-22T15:12:16.423Z,24.20
2019-04-22T15:14:11.652Z,24.40
2019-04-22T15:16:18.248Z,24.60
2019-04-22T15:18:41.953Z,24.80
2019-04-22T15:20:56.548Z,25.00
2019-04-22T15:23:00.380Z,24.80
2019-04-22T15:25:05.604Z,23.60
2019-04-22T15:27:10.565Z,24.00
2019-04-22T15:29:15.602Z,23.90
2019-04-22T15:31:19.489Z,23.70
2019-04-22T15:33:23.503Z,24.40
2019-04-22T15:35:27.399Z,24.60
2019-04-22T15:37:31.211Z,24.70
2019-04-22T15:39:36.304Z,24.80
2019-04-22T15:41:41.109Z,24.70
2019-04-22T15:43:45.751Z,24.50
2019-04-22T15:45:50.769Z,24.80
2019-04-22T15:47:55.956Z,24.80
2019-04-22T15:50:00.290Z,24.30
2019-04-22T15:52:06.087Z,24.60
2019-04-22T15:54:09.832Z,24.90
2019-04-22T15:56:14.722Z,25.00
2019-04-22T15:58:19.764Z,24.80
2019-04-22T16:00:37.315Z,24.90
2019-04-22T16:02:29.816Z,24.80
2019-04-22T16:04:34.715Z,24.90
2019-04-22T16:06:38.821Z,24.60
2019-04-22T16:08:43.892Z,24.40
2019-04-22T16:10:48.177Z,24.50
2019-04-22T16:13:02.513Z,24.40
2019-04-22T16:14:59.262Z,24.60
2019-04-22T16:17:04.252Z,24.70
2019-04-22T16:19:08.747Z,24.80
2019-04-22T16:21:13.195Z,24.10
2019-04-22T16:23:22.379Z,24.20
2019-04-22T16:27:50.591Z,24.60
2019-04-22T16:29:55.137Z,24.20
2019-04-22T16:31:59.024Z,23.90
2019-04-22T16:34:02.863Z,24.00
2019-04-22T16:36:07.109Z,24.00
2019-04-22T16:38:11.073Z,24.00
2019-04-22T16:40:14.817Z,24.00
2019-04-22T16:42:33.162Z,24.20
2019-04-22T16:44:24.870Z,24.10
2019-04-22T16:46:29.754Z,24.20
2019-04-22T16:48:33.759Z,24.20
2019-04-22T16:50:40.968Z,24.30
2019-04-22T16:52:43.954Z,24.30
2019-04-22T16:54:47.718Z,24.60
2019-04-22T16:56:52.246Z,24.80
2019-04-22T16:58:56.821Z,24.40
2019-04-22T17:01:00.750Z,24.30
2019-04-22T17:03:12.969Z,24.30
2019-04-22T17:05:19.805Z,24.30
2019-04-22T17:07:24.466Z,24.30
2019-04-22T17:09:33.919Z,24.40
2019-04-22T17:11:38.143Z,24.20
2019-04-22T17:13:42.438Z,24.30
2019-04-22T17:15:54.289Z,24.10
2019-04-22T17:17:58.992Z,24.20
2019-04-22T17:20:03.148Z,24.40
2019-04-22T17:22:07.871Z,24.00
2019-04-22T17:24:11.965Z,24.20
2019-04-22T17:26:16.744Z,24.10
2019-04-22T17:28:21.587Z,23.90
2019-04-22T17:30:26.414Z,24.00
2019-04-22T17:32:31.764Z,24.00
2019-04-22T17:34:35.926Z,23.80
2019-04-22T17:36:40.542Z,23.90
2019-04-22T17:38:53.165Z,24.00
2019-04-22T17:41:06.472Z,24.20
2019-04-22T17:43:29.825Z,23.90
2019-04-22T17:45:30.203Z,23.90
2019-04-22T17:47:24.700Z,23.90
2019-04-22T17:49:43.062Z,24.00
2019-04-22T17:51:45.038Z,24.20
2019-04-22T17:53:54.997Z,23.80
2019-04-22T17:55:55.786Z,23.80
2019-04-22T17:58:05.673Z,24.00
2019-04-22T17:59:58.764Z,24.00
2019-04-22T18:02:07.275Z,23.90
2019-04-22T18:04:00.981Z,23.60
2019-04-22T18:06:08.859Z,23.40
2019-04-22T18:08:25.179Z,23.50
2019-04-22T18:10:49.204Z,23.60
2019-04-22T18:12:50.078Z,23.50
2019-04-22T18:14:47.936Z,23.60
2019-04-22T18:16:58.907Z,23.70
2019-04-22T18:18:52.848Z,23.70
2019-04-22T18:21:00.081Z,23.60
2019-04-22T18:22:54.330Z,23.60
2019-04-22T18:25:06.338Z,23.60
2019-04-22T18:27:31.587Z,23.60
2019-04-22T18:29:21.992Z,23.40
2019-04-22T18:31:21.818Z,23.30
2019-04-22T18:33:32.914Z,23.30
2019-04-22T18:35:42.836Z,23.30
2019-04-22T18:37:49.935Z,23.30
2019-04-22T18:39:55.714Z,23.40
2019-04-22T18:41:51.824Z,23.30
2019-04-22T18:44:04.388Z,23.30
2019-04-22T18:46:12.724Z,23.00
2019-04-22T18:48:06.314Z,23.10
2019-04-22T18:50:21.998Z,22.60
2019-04-22T18:52:43.708Z,22.40
2019-04-22T18:54:59.360Z,22.40
2019-04-22T18:57:07.109Z,22.20
2019-04-22T18:58:59.119Z,22.50
2019-04-22T19:00:54.841Z,22.70
2019-04-22T19:03:06.631Z,22.80
2019-04-22T19:05:17.925Z,22.80
2019-04-22T19:07:36.812Z,22.90
2019-04-22T19:09:45.327Z,23.00
2019-04-22T19:11:55.655Z,23.00
2019-04-22T19:16:08.523Z,23.00
2019-04-22T19:18:10.827Z,23.00
2019-04-22T19:20:12.791Z,22.90
2019-04-22T19:22:07.962Z,22.90
2019-04-22T19:24:17.356Z,22.90
2019-04-22T19:26:30.909Z,22.80
2019-04-22T19:30:39.519Z,22.80
2019-04-22T19:32:38.596Z,22.80
2019-04-22T19:34:44.260Z,22.80
2019-04-22T19:36:51.303Z,22.80
2019-04-22T19:38:52.606Z,22.70
2019-04-22T19:41:08.651Z,22.70
2019-04-22T19:43:09.138Z,22.70
2019-04-22T19:45:13.323Z,22.60
2019-04-22T19:49:33.063Z,22.50
2019-04-22T19:51:44.113Z,22.40
2019-04-22T19:53:38.804Z,22.30
2019-04-22T19:55:43.579Z,22.30
2019-04-22T19:57:44.650Z,22.20
2019-04-22T19:59:51.073Z,22.20
2019-04-22T20:02:06.058Z,21.30
2019-04-22T20:06:26.867Z,21.80
2019-04-22T20:08:30.233Z,21.90
2019-04-22T20:10:40.214Z,21.90
2019-04-22T20:12:42.523Z,21.60
2019-04-22T20:14:51.177Z,21.70
2019-04-22T20:16:51.517Z,21.70
2019-04-22T20:19:10.471Z,22.00
2019-04-22T20:21:10.791Z,21.40
2019-04-22T20:23:10.113Z,21.30
2019-04-22T20:25:08.661Z,21.10
2019-04-22T20:27:22.489Z,21.30
2019-04-22T20:29:35.267Z,21.10
2019-04-22T20:31:43.067Z,21.20
2019-04-22T20:33:46.846Z,21.30
2019-04-22T20:35:43.499Z,21.50
2019-04-22T20:37:54.997Z,21.50
2019-04-22T20:39:52.890Z,21.40
2019-04-22T20:42:17.317Z,21.30
2019-04-22T20:44:11.432Z,21.40
2019-04-22T20:46:19.025Z,21.20
2019-04-22T20:48:09.293Z,20.90
2019-04-22T20:50:26.465Z,20.10
2019-04-22T20:52:34.473Z,20.70
2019-04-22T20:54:38.904Z,21.00
2019-04-22T20:56:38.565Z,20.60
2019-04-22T20:58:46.605Z,20.90
2019-04-22T21:00:45.259Z,20.80
2019-04-22T21:02:46.626Z,20.80
2019-04-22T21:04:52.033Z,20.90
2019-04-22T21:07:02.183Z,20.60
2019-04-22T21:09:18.019Z,20.60
2019-04-22T21:11:21.050Z,20.30
2019-04-22T21:13:20.722Z,20.80
2019-04-22T21:15:36.851Z,21.20
2019-04-22T21:17:36.595Z,21.20
2019-04-22T21:19:47.667Z,21.30
2019-04-22T21:21:54.998Z,21.20
2019-04-22T21:23:45.841Z,21.20
2019-04-22T21:25:58.054Z,21.40
2019-04-22T21:28:04.478Z,21.50
2019-04-22T21:30:01.902Z,21.20
2019-04-22T21:32:14.015Z,21.30
2019-04-22T21:34:19.221Z,21.00
2019-04-22T21:36:30.179Z,21.00
2019-04-22T21:38:35.932Z,20.20
2019-04-22T21:40:35.566Z,19.90
2019-04-22T21:42:48.894Z,20.30
2019-04-22T21:44:44.028Z,20.40
2019-04-22T21:47:03.404Z,20.60
2019-04-22T21:48:59.841Z,20.60
2019-04-22T21:51:10.915Z,20.60
2019-04-22T21:53:14.521Z,20.40
2019-04-22T21:55:16.659Z,20.70
2019-04-22T21:57:52.720Z,20.60
2019-04-22T21:59:37.172Z,20.30
2019-04-22T22:01:52.884Z,20.60
2019-04-22T22:03:50.659Z,20.70
2019-04-22T22:05:49.184Z,20.70
2019-04-22T22:07:53.472Z,20.60
2019-04-22T22:10:05.866Z,20.30
2019-04-22T22:12:08.552Z,20.20
2019-04-22T22:14:21.095Z,20.00
2019-04-22T22:16:20.344Z,20.40
2019-04-22T22:18:24.345Z,20.60
2019-04-22T22:20:30.997Z,20.70
2019-04-22T22:24:46.684Z,20.70
2019-04-22T22:26:54.203Z,20.80
2019-04-22T22:31:08.250Z,19.70
2019-04-22T22:33:06.007Z,20.10
2019-04-22T22:35:16.192Z,20.10
2019-04-22T22:37:09.786Z,20.30
2019-04-22T22:39:17.512Z,20.40
2019-04-22T22:41:09.869Z,20.40
2019-04-22T22:43:24.938Z,20.50
2019-04-22T22:45:32.020Z,20.30
2019-04-22T22:47:44.194Z,20.40
2019-04-22T22:49:54.932Z,20.10
2019-04-22T22:52:14.752Z,20.20
2019-04-22T22:54:06.378Z,19.50
2019-04-22T22:56:13.664Z,19.90
2019-04-22T22:58:21.241Z,19.60
2019-04-22T23:00:18.366Z,19.70
2019-04-22T23:02:22.915Z,19.90
2019-04-22T23:04:34.225Z,19.80
2019-04-22T23:06:40.642Z,19.90
2019-04-22T23:08:46.894Z,19.40
2019-04-22T23:10:57.469Z,19.60
2019-04-22T23:12:53.843Z,19.90
2019-04-22T23:14:55.807Z,20.00
2019-04-22T23:16:52.875Z,20.00
2019-04-22T23:19:04.489Z,19.80
2019-04-22T23:21:18.167Z,19.30
2019-04-22T23:23:36.113Z,19.10
2019-04-22T23:25:41.530Z,19.20
2019-04-22T23:27:46.149Z,19.60
2019-04-22T23:30:05.308Z,19.40
2019-04-22T23:32:23.799Z,19.40
2019-04-22T23:34:26.776Z,19.20
2019-04-22T23:36:38.377Z,18.80
2019-04-22T23:38:54.927Z,18.70
2019-04-22T23:40:47.898Z,19.10
2019-04-22T23:42:58.710Z,18.90
2019-04-22T23:45:07.323Z,19.10
2019-04-22T23:47:04.891Z,19.20
2019-04-22T23:49:11.798Z,19.50
2019-04-22T23:51:23.727Z,19.70
2019-04-22T23:54:00.901Z,19.70
2019-04-22T23:55:41.377Z,19.80
2019-04-22T23:57:47.842Z,19.30
